createdAt,value
2023-04-22T00:00:09.710Z,60.54
2023-04-22T00:02:39.870Z,60.85
2023-04-22T00:05:08.660Z,60.90
2023-04-22T00:07:36.758Z,62.15
2023-04-22T00:10:05.079Z,62.24
2023-04-22T00:12:32.956Z,62.73
2023-04-22T00:15:00.861Z,63.71
2023-04-22T00:17:28.882Z,64.50
2023-04-22T00:19:58.137Z,65.07
2023-04-22T00:22:26.055Z,64.68
2023-04-22T00:24:53.843Z,65.34
2023-04-22T00:27:21.585Z,65.77
2023-04-22T00:29:49.512Z,66.89
2023-04-22T00:32:17.381Z,67.77
2023-04-22T00:34:45.243Z,67.73
2023-04-22T00:37:14.545Z,68.27
2023-04-22T00:39:42.589Z,68.73
2023-04-22T00:42:10.794Z,69.46
2023-04-22T00:44:38.928Z,70.16
2023-04-22T00:47:06.992Z,70.63
2023-04-22T00:49:36.192Z,70.54
2023-04-22T00:52:04.089Z,70.87
2023-04-22T00:54:36.064Z,71.01
2023-04-22T00:57:04.245Z,70.28
2023-04-22T00:59:32.062Z,71.15
2023-04-22T01:02:01.305Z,71.07
2023-04-22T01:04:29.385Z,70.85
2023-04-22T01:06:57.329Z,70.98
2023-04-22T01:09:25.547Z,72.48
2023-04-22T01:11:56.233Z,73.61
2023-04-22T01:14:24.742Z,74.63
2023-04-22T01:16:53.932Z,75.41
2023-04-22T01:19:21.966Z,76.32
2023-04-22T01:21:52.218Z,77.46
2023-04-22T01:24:21.820Z,77.76
2023-04-22T01:26:49.996Z,77.17
2023-04-22T01:29:17.787Z,76.67
2023-04-22T01:31:45.721Z,77.07
2023-04-22T01:34:13.708Z,77.13
2023-04-22T01:36:41.490Z,77.14
2023-04-22T01:39:09.302Z,77.60
2023-04-22T01:41:38.598Z,77.82
2023-04-22T01:44:07.259Z,77.67
2023-04-22T01:46:35.732Z,78.06
2023-04-22T01:49:03.720Z,78.37
2023-04-22T01:51:31.706Z,78.52
2023-04-22T01:53:59.728Z,79.23
2023-04-22T01:56:27.986Z,79.53
2023-04-22T01:58:58.057Z,79.76
2023-04-22T02:01:25.967Z,79.69
2023-04-22T02:03:53.802Z,80.80
2023-04-22T02:06:21.645Z,81.60
2023-04-22T02:08:49.436Z,81.86
2023-04-22T02:11:17.256Z,81.93
2023-04-22T02:13:45.031Z,82.14
2023-04-22T02:16:14.202Z,82.00
2023-04-22T02:18:42.860Z,82.52
2023-04-22T02:21:10.675Z,83.07
2023-04-22T02:23:41.470Z,83.57
2023-04-22T02:26:09.441Z,83.64
2023-04-22T02:28:37.506Z,84.49
2023-04-22T02:31:05.419Z,83.76
2023-04-22T02:33:34.607Z,84.20
2023-04-22T02:36:02.370Z,83.97
2023-04-22T02:38:30.611Z,83.29
2023-04-22T02:40:58.450Z,83.88
2023-04-22T02:43:26.828Z,84.22
2023-04-22T02:45:54.645Z,84.51
2023-04-22T02:48:22.671Z,84.56
2023-04-22T02:50:51.968Z,84.97
2023-04-22T02:53:19.796Z,84.77
2023-04-22T02:55:47.771Z,84.71
2023-04-22T02:58:15.581Z,84.41
2023-04-22T03:00:43.942Z,85.12
2023-04-22T03:03:11.928Z,85.05
2023-04-22T03:05:39.868Z,85.50
2023-04-22T03:08:09.097Z,86.60
2023-04-22T03:10:37.555Z,86.22
2023-04-22T03:13:05.363Z,87.31
2023-04-22T03:15:33.257Z,88.51
2023-04-22T03:18:01.150Z,88.68
2023-04-22T03:20:29.699Z,88.85
2023-04-22T03:22:57.477Z,88.58
2023-04-22T03:25:29.004Z,89.72
2023-04-22T03:27:58.336Z,89.65
2023-04-22T03:30:26.687Z,89.80
2023-04-22T03:32:54.829Z,89.99
2023-04-22T03:35:27.100Z,90.22
2023-04-22T03:37:57.194Z,90.58
2023-04-22T03:40:32.057Z,90.84
2023-04-22T03:43:01.459Z,90.58
2023-04-22T03:45:30.165Z,90.73
2023-04-22T03:48:35.196Z,90.82
2023-04-22T03:51:06.826Z,91.21
2023-04-22T03:53:37.353Z,90.31
2023-04-22T03:56:07.407Z,90.60
2023-04-22T03:58:39.408Z,90.54
2023-04-22T04:01:09.351Z,90.84
2023-04-22T04:03:38.132Z,91.36
2023-04-22T04:06:07.845Z,90.48
2023-04-22T04:08:35.652Z,90.17
2023-04-22T04:11:03.516Z,90.19
2023-04-22T04:13:33.211Z,90.19
2023-04-22T04:16:23.270Z,90.00
2023-04-22T04:18:57.621Z,90.44
2023-04-22T04:21:27.949Z,90.76
2023-04-22T04:23:56.982Z,90.40
2023-04-22T04:26:28.785Z,90.08
2023-04-22T04:29:06.722Z,89.76
2023-04-22T04:31:35.368Z,90.13
2023-04-22T04:34:04.200Z,90.14
2023-04-22T04:36:32.866Z,89.87
2023-04-22T04:39:12.589Z,89.52
2023-04-22T04:41:41.144Z,88.11
2023-04-22T04:44:11.198Z,86.85
2023-04-22T04:46:40.860Z,86.35
2023-04-22T04:49:12.626Z,85.29
2023-04-22T04:51:56.666Z,84.73
2023-04-22T04:54:24.716Z,84.70
2023-04-22T04:56:52.689Z,83.93
2023-04-22T04:59:22.178Z,84.69
2023-04-22T05:01:50.548Z,84.78
2023-04-22T05:04:18.821Z,84.92
2023-04-22T05:06:46.772Z,84.98
2023-04-22T05:09:15.150Z,84.50
2023-04-22T05:11:44.588Z,84.96
2023-04-22T05:14:17.547Z,85.49
2023-04-22T05:16:48.581Z,84.99
2023-04-22T05:19:16.762Z,85.47
2023-04-22T05:21:45.547Z,85.18
2023-04-22T05:24:13.446Z,84.50
2023-04-22T05:26:41.598Z,83.73
2023-04-22T05:29:15.750Z,83.73
2023-04-22T05:31:43.975Z,83.53
2023-04-22T05:34:13.209Z,83.15
2023-04-22T05:36:41.459Z,82.96
2023-04-22T05:39:09.725Z,82.97
2023-04-22T05:41:37.631Z,83.54
2023-04-22T05:44:09.261Z,83.50
2023-04-22T05:46:37.316Z,84.46
2023-04-22T05:49:05.424Z,84.48
2023-04-22T05:52:00.755Z,82.51
2023-04-22T05:54:35.956Z,81.85
2023-04-22T05:57:04.771Z,82.31
2023-04-22T05:59:32.853Z,81.51
2023-04-22T06:02:00.956Z,80.30
2023-04-22T06:04:29.190Z,79.36
2023-04-22T06:06:57.654Z,79.46
2023-04-22T06:09:26.908Z,79.76
2023-04-22T06:11:54.764Z,77.12
2023-04-22T06:14:23.103Z,76.90
2023-04-22T06:16:52.697Z,77.99
2023-04-22T06:19:20.848Z,77.66
2023-04-22T06:21:48.673Z,78.47
2023-04-22T06:24:17.406Z,77.86
2023-04-22T06:26:46.643Z,76.20
2023-04-22T06:29:15.238Z,77.64
2023-04-22T06:31:43.816Z,77.42
2023-04-22T06:34:11.714Z,77.22
2023-04-22T06:36:40.243Z,75.17
2023-04-22T06:39:10.866Z,74.66
2023-04-22T06:41:46.146Z,73.68
2023-04-22T06:44:34.220Z,72.48
2023-04-22T06:47:24.317Z,74.01
2023-04-22T06:50:01.277Z,72.79
2023-04-22T06:52:37.823Z,70.88
2023-04-22T06:55:06.397Z,68.98
2023-04-22T06:57:35.570Z,70.33
2023-04-22T07:00:04.332Z,69.54
2023-04-22T07:02:32.711Z,68.26
2023-04-22T07:05:01.083Z,66.73
2023-04-22T07:07:29.102Z,66.77
2023-04-22T07:09:56.952Z,68.28
2023-04-22T07:12:28.302Z,65.80
2023-04-22T07:14:57.682Z,64.62
2023-04-22T07:17:25.452Z,63.07
2023-04-22T07:19:53.431Z,63.03
2023-04-22T07:22:21.286Z,62.27
2023-04-22T07:24:49.177Z,61.78
2023-04-22T07:27:17.229Z,61.83
2023-04-22T07:29:45.007Z,61.44
2023-04-22T07:32:15.310Z,62.40
2023-04-22T07:34:43.091Z,60.61
2023-04-22T07:37:11.030Z,60.22
2023-04-22T07:39:39.140Z,63.96
2023-04-22T07:42:07.305Z,60.96
2023-04-22T07:44:36.502Z,59.63
2023-04-22T07:47:07.669Z,57.83
2023-04-22T07:49:37.009Z,60.40
2023-04-22T07:52:05.017Z,61.79
2023-04-22T07:54:32.813Z,57.54
2023-04-22T07:57:01.638Z,57.79
2023-04-22T07:59:29.505Z,56.02
2023-04-22T08:01:57.432Z,57.72
2023-04-22T08:04:25.595Z,56.92
2023-04-22T08:06:55.871Z,55.98
2023-04-22T08:09:23.683Z,56.27
2023-04-22T08:11:53.704Z,57.89
2023-04-22T08:14:21.491Z,54.14
2023-04-22T08:16:49.303Z,52.54
2023-04-22T08:19:17.089Z,53.61
2023-04-22T08:21:44.905Z,51.72
2023-04-22T08:24:14.163Z,52.66
2023-04-22T08:26:42.329Z,51.18
2023-04-22T08:29:10.542Z,51.22
2023-04-22T08:31:38.344Z,49.46
2023-04-22T08:34:06.257Z,49.42
2023-04-22T08:36:34.128Z,51.85
2023-04-22T08:39:02.240Z,49.75
2023-04-22T08:41:34.737Z,50.06
2023-04-22T08:44:02.817Z,53.63
2023-04-22T08:46:32.251Z,50.02
2023-04-22T08:49:03.652Z,49.11
2023-04-22T08:51:33.455Z,49.29
2023-04-22T08:54:01.533Z,51.41
2023-04-22T08:56:31.430Z,48.16
2023-04-22T08:58:59.742Z,48.05
2023-04-22T09:01:29.588Z,50.32
2023-04-22T09:04:00.741Z,49.12
2023-04-22T09:06:28.902Z,49.66
2023-04-22T09:08:58.933Z,47.28
2023-04-22T09:11:28.594Z,49.06
2023-04-22T09:13:58.024Z,46.77
2023-04-22T09:16:25.911Z,46.07
2023-04-22T09:18:53.680Z,46.01
2023-04-22T09:21:21.525Z,45.25
2023-04-22T09:23:51.609Z,46.35
2023-04-22T09:26:20.833Z,46.18
2023-04-22T09:28:52.328Z,45.12
2023-04-22T09:31:21.751Z,45.90
2023-04-22T09:33:51.794Z,45.33
2023-04-22T09:36:24.154Z,45.21
2023-04-22T09:38:55.879Z,45.41
2023-04-22T09:41:30.351Z,45.41
2023-04-22T09:43:59.177Z,44.72
2023-04-22T09:46:30.116Z,43.95
2023-04-22T09:48:59.775Z,44.90
2023-04-22T09:51:29.114Z,44.39
2023-04-22T09:54:04.147Z,44.53
2023-04-22T09:56:43.179Z,43.80
2023-04-22T09:59:11.148Z,43.89
2023-04-22T10:01:41.756Z,43.85
2023-04-22T10:04:11.296Z,43.63
2023-04-22T10:06:39.311Z,43.74
2023-04-22T10:09:09.419Z,45.54
2023-04-22T10:11:38.454Z,43.51
2023-04-22T10:14:06.539Z,43.54
2023-04-22T10:16:36.865Z,43.62
2023-04-22T10:19:08.469Z,42.44
2023-04-22T10:21:36.719Z,44.14
2023-04-22T10:24:05.283Z,43.48
2023-04-22T10:26:41.131Z,44.11
2023-04-22T10:29:10.812Z,44.17
2023-04-22T10:31:39.651Z,43.90
2023-04-22T10:34:14.106Z,44.21
2023-04-22T10:36:59.563Z,43.07
2023-04-22T10:39:28.860Z,42.31
2023-04-22T10:42:10.266Z,42.27
2023-04-22T10:44:51.950Z,43.31
2023-04-22T10:47:27.421Z,44.56
2023-04-22T10:52:51.788Z,42.21
2023-04-22T10:55:21.342Z,40.72
2023-04-22T10:57:50.977Z,41.18
2023-04-22T11:00:35.285Z,42.23
2023-04-22T11:03:12.486Z,42.19
2023-04-22T11:05:41.643Z,41.59
2023-04-22T11:08:20.610Z,41.30
2023-04-22T11:10:50.703Z,41.55
2023-04-22T11:13:21.027Z,42.72
2023-04-22T11:15:50.831Z,41.78
2023-04-22T11:18:21.406Z,41.30
2023-04-22T11:20:50.928Z,41.03
2023-04-22T11:23:21.922Z,40.90
2023-04-22T11:25:54.754Z,41.80
2023-04-22T11:28:23.368Z,42.89
2023-04-22T11:30:51.829Z,41.75
2023-04-22T11:33:20.943Z,42.81
2023-04-22T11:35:50.503Z,40.55
2023-04-22T11:38:18.362Z,42.42
2023-04-22T11:40:48.199Z,42.15
2023-04-22T11:43:18.550Z,42.04
2023-04-22T11:45:46.592Z,41.11
2023-04-22T11:48:15.712Z,41.43
2023-04-22T11:50:44.791Z,40.08
2023-04-22T11:53:17.624Z,42.49
2023-04-22T11:55:50.826Z,40.82
2023-04-22T11:58:24.904Z,42.25
2023-04-22T12:00:54.135Z,41.99
2023-04-22T12:03:24.072Z,40.95
2023-04-22T12:05:54.419Z,40.60
2023-04-22T12:08:24.677Z,40.92
2023-04-22T12:10:55.900Z,39.93
2023-04-22T12:13:25.813Z,39.70
2023-04-22T12:15:56.684Z,39.42
2023-04-22T12:18:31.624Z,39.49
2023-04-22T12:21:09.234Z,40.03
2023-04-22T12:23:42.584Z,40.36
2023-04-22T12:26:12.942Z,41.53
2023-04-22T12:28:42.434Z,41.89
2023-04-22T12:31:10.871Z,40.21
2023-04-22T12:33:39.795Z,40.63
2023-04-22T12:36:08.042Z,40.39
2023-04-22T12:38:36.290Z,40.26
2023-04-22T12:41:04.743Z,39.35
2023-04-22T12:43:36.717Z,40.34
2023-04-22T12:46:05.632Z,41.42
2023-04-22T12:48:34.142Z,41.56
2023-04-22T12:51:01.954Z,39.82
2023-04-22T12:53:30.142Z,39.15
2023-04-22T12:55:58.423Z,39.11
2023-04-22T12:58:27.160Z,39.00
2023-04-22T13:00:56.320Z,39.46
2023-04-22T13:03:24.456Z,38.93
2023-04-22T13:05:53.231Z,38.64
2023-04-22T13:08:21.194Z,38.66
2023-04-22T13:10:49.196Z,38.63
2023-04-22T13:13:18.849Z,38.63
2023-04-22T13:15:47.836Z,36.93
2023-04-22T13:18:17.554Z,39.45
2023-04-22T13:20:45.458Z,37.34
2023-04-22T13:23:14.809Z,37.06
2023-04-22T13:25:42.702Z,37.54
2023-04-22T13:28:11.437Z,37.93
2023-04-22T13:30:39.812Z,38.79
2023-04-22T13:33:08.182Z,38.19
2023-04-22T13:35:37.547Z,39.29
2023-04-22T13:38:07.159Z,38.51
2023-04-22T13:40:35.070Z,39.13
2023-04-22T13:43:02.964Z,41.17
2023-04-22T13:45:31.031Z,39.27
2023-04-22T13:47:58.993Z,38.99
2023-04-22T13:50:26.793Z,38.25
2023-04-22T13:52:56.499Z,37.46
2023-04-22T13:55:24.329Z,36.76
2023-04-22T13:57:52.502Z,36.92
2023-04-22T14:00:20.883Z,38.22
2023-04-22T14:02:49.498Z,37.72
2023-04-22T14:05:17.931Z,37.04
2023-04-22T14:07:46.153Z,36.96
2023-04-22T14:10:16.313Z,38.67
2023-04-22T14:12:46.028Z,37.17
2023-04-22T14:15:14.720Z,36.13
2023-04-22T14:17:43.233Z,36.96
2023-04-22T14:20:11.847Z,38.06
2023-04-22T14:22:39.603Z,36.99
2023-04-22T14:25:08.520Z,38.45
2023-04-22T14:27:37.725Z,37.22
2023-04-22T14:30:08.315Z,36.30
2023-04-22T14:32:36.811Z,36.42
2023-04-22T14:35:05.034Z,36.12
2023-04-22T14:37:32.996Z,35.75
2023-04-22T14:40:00.998Z,36.50
2023-04-22T14:42:29.479Z,35.95
2023-04-22T14:44:58.778Z,35.16
2023-04-22T14:47:26.941Z,35.13
2023-04-22T14:49:54.789Z,35.53
2023-04-22T14:52:22.703Z,35.80
2023-04-22T14:54:51.917Z,35.79
2023-04-22T14:57:20.045Z,36.63
2023-04-22T14:59:47.852Z,36.67
2023-04-22T15:02:17.258Z,36.44
2023-04-22T15:04:45.322Z,36.51
2023-04-22T15:07:13.144Z,36.84
2023-04-22T15:09:41.331Z,37.84
2023-04-22T15:12:09.491Z,36.91
2023-04-22T15:14:37.563Z,37.47
2023-04-22T15:17:06.318Z,37.09
2023-04-22T15:19:35.569Z,38.78
2023-04-22T15:22:03.858Z,37.22
2023-04-22T15:24:31.703Z,37.67
2023-04-22T15:27:01.297Z,38.08
2023-04-22T15:29:29.525Z,37.21
2023-04-22T15:31:57.842Z,38.12
2023-04-22T15:34:26.155Z,37.75
2023-04-22T15:36:55.378Z,38.91
2023-04-22T15:39:25.132Z,38.06
2023-04-22T15:41:52.899Z,38.82
2023-04-22T15:44:20.692Z,38.86
2023-04-22T15:46:48.552Z,37.17
2023-04-22T15:49:16.641Z,37.93
2023-04-22T15:51:44.534Z,38.11
2023-04-22T15:54:14.080Z,37.33
2023-04-22T15:56:41.982Z,38.62
2023-04-22T15:59:09.917Z,37.45
2023-04-22T16:01:40.471Z,36.12
2023-04-22T16:04:08.887Z,36.39
2023-04-22T16:06:38.100Z,36.80
2023-04-22T16:09:06.018Z,37.02
2023-04-22T16:11:35.214Z,36.80
2023-04-22T16:14:03.124Z,37.01
2023-04-22T16:16:32.338Z,36.82
2023-04-22T16:19:00.240Z,36.36
2023-04-22T16:21:28.629Z,37.12
2023-04-22T16:23:56.490Z,37.79
2023-04-22T16:26:24.338Z,38.46
2023-04-22T16:28:54.832Z,38.58
2023-04-22T16:31:23.665Z,38.38
2023-04-22T16:33:52.163Z,38.93
2023-04-22T16:36:20.160Z,38.16
2023-04-22T16:38:47.989Z,37.87
2023-04-22T16:41:15.968Z,38.17
2023-04-22T16:43:43.813Z,38.26
2023-04-22T16:46:13.102Z,38.86
2023-04-22T16:48:40.984Z,38.65
2023-04-22T16:51:08.861Z,37.90
2023-04-22T16:53:37.079Z,38.95
2023-04-22T16:56:05.261Z,39.42
2023-04-22T16:58:33.116Z,39.29
2023-04-22T17:01:00.957Z,39.08
2023-04-22T17:03:30.271Z,40.12
2023-04-22T17:05:58.176Z,40.27
2023-04-22T17:08:26.007Z,40.44
2023-04-22T17:10:53.769Z,41.17
2023-04-22T17:13:21.540Z,41.03
2023-04-22T17:15:49.430Z,41.05
2023-04-22T17:18:17.224Z,40.95
2023-04-22T17:20:46.509Z,41.93
2023-04-22T17:23:14.483Z,41.86
2023-04-22T17:25:42.487Z,42.21
2023-04-22T17:28:11.678Z,43.52
2023-04-22T17:30:39.701Z,47.34
2023-04-22T17:33:07.550Z,46.72
2023-04-22T17:35:35.306Z,46.31
2023-04-22T17:38:04.553Z,46.47
2023-04-22T17:40:32.397Z,49.00
2023-04-22T17:43:00.330Z,49.40
2023-04-22T17:45:28.254Z,50.15
2023-04-22T17:47:56.077Z,50.48
2023-04-22T17:50:23.976Z,51.72
2023-04-22T17:52:51.912Z,53.47
2023-04-22T17:55:21.578Z,53.85
2023-04-22T17:57:49.426Z,51.85
2023-04-22T18:00:18.053Z,52.63
2023-04-22T18:02:46.148Z,54.86
2023-04-22T18:05:14.542Z,53.86
2023-04-22T18:07:42.382Z,52.79
2023-04-22T18:10:11.935Z,51.89
2023-04-22T18:12:41.682Z,54.13
2023-04-22T18:15:09.884Z,54.79
2023-04-22T18:17:38.092Z,56.37
2023-04-22T18:20:17.520Z,56.43
2023-04-22T18:22:47.817Z,55.46
2023-04-22T18:25:15.994Z,55.78
2023-04-22T18:27:45.490Z,59.39
2023-04-22T18:30:13.620Z,64.70
2023-04-22T18:32:41.515Z,64.21
2023-04-22T18:35:10.678Z,63.78
2023-04-22T18:37:38.504Z,61.61
2023-04-22T18:40:08.038Z,61.33
2023-04-22T18:42:35.849Z,61.12
2023-04-22T18:45:07.463Z,59.47
2023-04-22T18:47:35.380Z,59.56
2023-04-22T18:50:03.276Z,59.13
2023-04-22T18:52:31.166Z,59.28
2023-04-22T18:54:59.199Z,60.80
2023-04-22T18:57:27.125Z,65.12
2023-04-22T18:59:55.071Z,61.99
2023-04-22T19:02:24.416Z,61.63
2023-04-22T19:04:54.103Z,63.04
2023-04-22T19:07:22.048Z,63.44
2023-04-22T19:09:49.836Z,63.04
2023-04-22T19:12:19.476Z,63.68
2023-04-22T19:14:48.413Z,64.48
2023-04-22T19:17:16.315Z,63.40
2023-04-22T19:19:46.488Z,65.03
2023-04-22T19:22:14.176Z,64.65
2023-04-22T19:24:42.156Z,65.82
2023-04-22T19:27:12.409Z,66.62
2023-04-22T19:29:41.561Z,65.42
2023-04-22T19:32:11.013Z,65.63
2023-04-22T19:34:39.052Z,63.23
2023-04-22T19:37:08.395Z,61.65
2023-04-22T19:39:36.686Z,62.02
2023-04-22T19:42:04.618Z,63.46
2023-04-22T19:44:32.745Z,64.33
2023-04-22T19:47:00.871Z,64.66
2023-04-22T19:49:31.141Z,65.01
2023-04-22T19:51:58.870Z,66.56
2023-04-22T19:54:30.446Z,66.84
2023-04-22T19:56:59.067Z,65.55
2023-04-22T19:59:31.032Z,64.30
2023-04-22T20:01:59.472Z,62.20
2023-04-22T20:04:28.088Z,62.28
2023-04-22T20:06:57.159Z,63.08
2023-04-22T20:09:26.460Z,62.22
2023-04-22T20:11:55.853Z,63.71
2023-04-22T20:14:24.334Z,64.12
2023-04-22T20:16:52.690Z,64.16
2023-04-22T20:19:20.866Z,64.46
2023-04-22T20:21:49.514Z,65.31
2023-04-22T20:24:19.584Z,65.05
2023-04-22T20:26:49.515Z,65.73
2023-04-22T20:29:19.519Z,65.65
2023-04-22T20:31:47.713Z,65.65
2023-04-22T20:34:15.704Z,64.26
2023-04-22T20:36:43.862Z,64.95
2023-04-22T20:39:14.354Z,66.01
2023-04-22T20:41:43.257Z,68.10
2023-04-22T20:44:11.391Z,68.93
2023-04-22T20:46:40.660Z,69.41
2023-04-22T20:49:08.521Z,70.64
2023-04-22T20:51:36.511Z,71.31
2023-04-22T20:54:06.195Z,73.54
2023-04-22T20:56:37.988Z,76.49
2023-04-22T20:59:06.062Z,77.40
2023-04-22T21:01:34.166Z,78.31
2023-04-22T21:04:04.464Z,80.88
2023-04-22T21:06:34.037Z,83.96
2023-04-22T21:09:02.770Z,87.59
2023-04-22T21:11:31.182Z,87.81
2023-04-22T21:14:00.018Z,90.11
2023-04-22T21:16:29.703Z,91.81
2023-04-22T21:19:00.407Z,92.10
2023-04-22T21:21:33.965Z,92.83
2023-04-22T21:24:02.818Z,94.07
2023-04-22T21:26:31.280Z,94.35
2023-04-22T21:28:59.612Z,94.14
2023-04-22T21:31:28.136Z,93.60
2023-04-22T21:33:56.121Z,94.20
2023-04-22T21:36:25.022Z,94.42
2023-04-22T21:38:54.956Z,95.83
2023-04-22T21:41:23.313Z,95.07
2023-04-22T21:43:51.134Z,95.43
2023-04-22T21:46:19.934Z,97.52
2023-04-22T21:48:47.886Z,98.24
2023-04-22T21:51:15.696Z,97.62
2023-04-22T21:53:44.507Z,95.09
2023-04-22T21:56:13.759Z,94.90
2023-04-22T21:58:41.902Z,96.14
2023-04-22T22:01:09.749Z,97.74
2023-04-22T22:03:38.010Z,96.26
2023-04-22T22:06:06.618Z,95.54
2023-04-22T22:08:34.400Z,95.40
2023-04-22T22:11:07.008Z,95.15
2023-04-22T22:13:37.281Z,95.09
2023-04-22T22:16:05.492Z,95.26
2023-04-22T22:18:33.451Z,95.46
2023-04-22T22:21:01.422Z,96.64
2023-04-22T22:23:29.287Z,98.51
2023-04-22T22:25:57.141Z,97.65
2023-04-22T22:28:25.041Z,97.20
2023-04-22T22:30:59.553Z,97.17
2023-04-22T22:33:27.410Z,94.05
2023-04-22T22:35:55.367Z,96.06
2023-04-22T22:38:23.484Z,95.53
2023-04-22T22:40:51.333Z,95.50
2023-04-22T22:43:19.375Z,99.21
2023-04-22T22:45:47.283Z,98.75
2023-04-22T22:48:16.663Z,97.52
2023-04-22T22:50:46.360Z,97.58
2023-04-22T22:53:14.344Z,97.68
2023-04-22T22:55:42.091Z,99.36
2023-04-22T22:58:10.313Z,99.90
2023-04-22T23:00:38.195Z,98.41
2023-04-22T23:03:06.747Z,98.14
2023-04-22T23:05:36.145Z,98.11
2023-04-22T23:08:04.070Z,98.26
2023-04-22T23:10:32.431Z,97.53
2023-04-22T23:13:00.343Z,97.93
2023-04-22T23:15:28.222Z,99.35
2023-04-22T23:17:56.202Z,100.00
2023-04-22T23:20:25.541Z,100.00
2023-04-22T23:22:55.659Z,100.00
2023-04-22T23:25:24.329Z,100.00
2023-04-22T23:27:52.808Z,100.00
2023-04-22T23:30:21.864Z,100.00
2023-04-22T23:32:52.064Z,100.00
2023-04-22T23:35:20.297Z,100.00
2023-04-22T23:37:48.836Z,100.00
2023-04-22T23:40:18.233Z,100.00
2023-04-22T23:42:46.016Z,100.00
2023-04-22T23:45:13.902Z,100.00
2023-04-22T23:47:42.076Z,100.00
2023-04-22T23:50:10.665Z,100.00
2023-04-22T23:52:41.255Z,100.00
2023-04-22T23:55:11.331Z,100.00
2023-04-22T23:57:41.175Z,100.00
